Terminal Aerodrome Forecast
Issued by NWS

Home | Current Version | Previous Version | Text Only | Print | Product List | Glossary On
Versions: 1 2 3 4 5 6 7 8 9 10 11 12 13 14 15 16 17 18 19 20 21 22 23 24 25 26 27 28 29 30 31 32 33 34
840
FTAK31 PAFC 192106 AAA
TAFADU
TAF AMD
PADU 192106Z 1921/2018 03004KT 5SM -SN BR SCT015 OVC025
      TEMPO 1921/2001 2SM -SN BR OVC015
     FM200100 05015KT 2SM -SN BKN020 OVC025
     FM200300 05020G30KT 4SM -SHSN BR OVC015=

USA.gov is the U.S. government's official web portal to all federal, state and local government web resources and services.